sensor_id;sensor_type;location;lat;lon;timestamp;P1;durP1;ratioP1;P2;durP2;ratioP2
78346;SDS011;67803;41.330;69.282;2023-04-24T00:00:44;7.63;;;3.00;;
78346;SDS011;67803;41.330;69.282;2023-04-24T00:03:15;10.02;;;3.20;;
78346;SDS011;67803;41.330;69.282;2023-04-24T00:05:45;9.52;;;3.08;;
78346;SDS011;67803;41.330;69.282;2023-04-24T00:08:17;10.57;;;3.10;;
78346;SDS011;67803;41.330;69.282;2023-04-24T00:10:47;10.98;;;3.00;;
78346;SDS011;67803;41.330;69.282;2023-04-24T00:13:18;9.27;;;3.03;;
78346;SDS011;67803;41.330;69.282;2023-04-24T00:15:48;11.52;;;2.90;;
78346;SDS011;67803;41.330;69.282;2023-04-24T00:18:19;6.70;;;3.28;;
78346;SDS011;67803;41.330;69.282;2023-04-24T00:20:49;10.27;;;2.95;;
78346;SDS011;67803;41.330;69.282;2023-04-24T00:23:19;7.43;;;2.53;;
78346;SDS011;67803;41.330;69.282;2023-04-24T00:25:50;5.95;;;2.70;;
78346;SDS011;67803;41.330;69.282;2023-04-24T00:28:20;8.77;;;2.90;;
78346;SDS011;67803;41.330;69.282;2023-04-24T00:30:51;7.35;;;2.63;;
78346;SDS011;67803;41.330;69.282;2023-04-24T00:33:21;11.38;;;2.75;;
78346;SDS011;67803;41.330;69.282;2023-04-24T00:35:52;4.32;;;2.20;;
78346;SDS011;67803;41.330;69.282;2023-04-24T00:38:22;11.13;;;3.03;;
78346;SDS011;67803;41.330;69.282;2023-04-24T00:40:53;5.97;;;2.55;;
78346;SDS011;67803;41.330;69.282;2023-04-24T00:43:24;7.78;;;2.67;;
78346;SDS011;67803;41.330;69.282;2023-04-24T00:45:54;5.53;;;2.30;;
78346;SDS011;67803;41.330;69.282;2023-04-24T00:48:25;5.38;;;2.05;;
78346;SDS011;67803;41.330;69.282;2023-04-24T00:50:56;7.95;;;2.70;;
78346;SDS011;67803;41.330;69.282;2023-04-24T00:53:28;7.72;;;2.72;;
78346;SDS011;67803;41.330;69.282;2023-04-24T00:55:59;10.10;;;2.85;;
78346;SDS011;67803;41.330;69.282;2023-04-24T00:58:30;6.35;;;2.35;;
78346;SDS011;67803;41.330;69.282;2023-04-24T01:01:01;6.72;;;2.78;;
78346;SDS011;67803;41.330;69.282;2023-04-24T01:03:32;8.68;;;2.90;;
78346;SDS011;67803;41.330;69.282;2023-04-24T01:06:03;7.15;;;2.33;;
78346;SDS011;67803;41.330;69.282;2023-04-24T01:08:34;8.95;;;2.75;;
78346;SDS011;67803;41.330;69.282;2023-04-24T01:11:06;11.30;;;2.75;;
78346;SDS011;67803;41.330;69.282;2023-04-24T01:13:36;10.02;;;3.10;;
78346;SDS011;67803;41.330;69.282;2023-04-24T01:16:07;9.48;;;2.80;;
78346;SDS011;67803;41.330;69.282;2023-04-24T01:18:37;9.27;;;2.97;;
78346;SDS011;67803;41.330;69.282;2023-04-24T01:21:08;11.50;;;2.75;;
78346;SDS011;67803;41.330;69.282;2023-04-24T01:23:39;9.57;;;3.25;;
78346;SDS011;67803;41.330;69.282;2023-04-24T01:26:10;13.10;;;3.30;;
78346;SDS011;67803;41.330;69.282;2023-04-24T01:28:41;9.27;;;3.85;;
78346;SDS011;67803;41.330;69.282;2023-04-24T01:31:11;12.60;;;3.40;;
78346;SDS011;67803;41.330;69.282;2023-04-24T01:33:42;14.88;;;2.83;;
78346;SDS011;67803;41.330;69.282;2023-04-24T01:36:12;13.38;;;4.28;;
78346;SDS011;67803;41.330;69.282;2023-04-24T01:38:43;11.90;;;3.65;;
78346;SDS011;67803;41.330;69.282;2023-04-24T01:41:14;13.65;;;3.30;;
78346;SDS011;67803;41.330;69.282;2023-04-24T01:43:44;16.23;;;3.45;;
78346;SDS011;67803;41.330;69.282;2023-04-24T01:46:15;11.50;;;3.85;;
78346;SDS011;67803;41.330;69.282;2023-04-24T01:48:45;13.90;;;3.88;;
78346;SDS011;67803;41.330;69.282;2023-04-24T01:51:16;12.05;;;3.20;;
78346;SDS011;67803;41.330;69.282;2023-04-24T01:53:46;14.35;;;3.88;;
78346;SDS011;67803;41.330;69.282;2023-04-24T01:56:17;15.52;;;3.72;;
78346;SDS011;67803;41.330;69.282;2023-04-24T01:58:48;11.95;;;3.28;;
78346;SDS011;67803;41.330;69.282;2023-04-24T02:01:20;17.20;;;4.28;;
78346;SDS011;67803;41.330;69.282;2023-04-24T02:03:51;12.98;;;4.03;;
78346;SDS011;67803;41.330;69.282;2023-04-24T02:06:21;18.67;;;4.53;;
78346;SDS011;67803;41.330;69.282;2023-04-24T02:08:52;18.58;;;4.72;;
78346;SDS011;67803;41.330;69.282;2023-04-24T02:11:22;17.48;;;4.60;;
78346;SDS011;67803;41.330;69.282;2023-04-24T02:13:53;13.63;;;3.83;;
78346;SDS011;67803;41.330;69.282;2023-04-24T02:16:23;17.65;;;4.35;;
78346;SDS011;67803;41.330;69.282;2023-04-24T02:18:54;15.55;;;3.60;;
78346;SDS011;67803;41.330;69.282;2023-04-24T02:21:25;18.92;;;3.80;;
78346;SDS011;67803;41.330;69.282;2023-04-24T02:23:55;18.02;;;4.30;;
78346;SDS011;67803;41.330;69.282;2023-04-24T02:26:26;16.80;;;3.83;;
78346;SDS011;67803;41.330;69.282;2023-04-24T02:28:57;14.95;;;3.80;;
78346;SDS011;67803;41.330;69.282;2023-04-24T02:31:27;16.73;;;4.20;;
78346;SDS011;67803;41.330;69.282;2023-04-24T02:33:58;18.17;;;4.40;;
78346;SDS011;67803;41.330;69.282;2023-04-24T02:36:28;13.88;;;3.90;;
78346;SDS011;67803;41.330;69.282;2023-04-24T02:38:59;13.68;;;3.70;;
78346;SDS011;67803;41.330;69.282;2023-04-24T02:41:31;12.32;;;3.75;;
78346;SDS011;67803;41.330;69.282;2023-04-24T02:44:02;15.00;;;4.20;;
78346;SDS011;67803;41.330;69.282;2023-04-24T02:46:33;18.02;;;4.18;;
78346;SDS011;67803;41.330;69.282;2023-04-24T02:49:03;13.93;;;4.07;;
78346;SDS011;67803;41.330;69.282;2023-04-24T02:51:34;14.90;;;3.92;;
78346;SDS011;67803;41.330;69.282;2023-04-24T02:54:04;15.82;;;4.40;;
78346;SDS011;67803;41.330;69.282;2023-04-24T02:56:35;12.93;;;3.92;;
78346;SDS011;67803;41.330;69.282;2023-04-24T02:59:05;16.55;;;4.55;;
78346;SDS011;67803;41.330;69.282;2023-04-24T03:01:36;12.98;;;4.38;;
78346;SDS011;67803;41.330;69.282;2023-04-24T03:04:06;10.95;;;4.28;;
78346;SDS011;67803;41.330;69.282;2023-04-24T03:06:37;16.25;;;4.97;;
78346;SDS011;67803;41.330;69.282;2023-04-24T03:09:07;17.50;;;5.00;;
78346;SDS011;67803;41.330;69.282;2023-04-24T03:11:37;21.65;;;4.82;;
78346;SDS011;67803;41.330;69.282;2023-04-24T03:14:08;22.23;;;5.28;;
78346;SDS011;67803;41.330;69.282;2023-04-24T03:16:38;21.52;;;5.45;;
78346;SDS011;67803;41.330;69.282;2023-04-24T03:19:09;19.45;;;5.43;;
78346;SDS011;67803;41.330;69.282;2023-04-24T03:21:39;22.48;;;5.80;;
78346;SDS011;67803;41.330;69.282;2023-04-24T03:24:10;15.55;;;5.05;;
78346;SDS011;67803;41.330;69.282;2023-04-24T03:26:41;22.77;;;5.47;;
78346;SDS011;67803;41.330;69.282;2023-04-24T03:29:11;17.38;;;5.05;;
78346;SDS011;67803;41.330;69.282;2023-04-24T03:31:42;11.93;;;4.68;;
78346;SDS011;67803;41.330;69.282;2023-04-24T03:34:12;8.68;;;4.45;;
78346;SDS011;67803;41.330;69.282;2023-04-24T03:36:43;11.65;;;4.30;;
78346;SDS011;67803;41.330;69.282;2023-04-24T03:39:13;15.50;;;5.38;;
78346;SDS011;67803;41.330;69.282;2023-04-24T03:41:44;16.60;;;5.63;;
78346;SDS011;67803;41.330;69.282;2023-04-24T03:44:14;13.88;;;5.60;;
78346;SDS011;67803;41.330;69.282;2023-04-24T03:46:45;13.50;;;5.55;;
78346;SDS011;67803;41.330;69.282;2023-04-24T03:49:15;13.13;;;5.60;;
78346;SDS011;67803;41.330;69.282;2023-04-24T03:51:46;15.25;;;6.03;;
78346;SDS011;67803;41.330;69.282;2023-04-24T03:54:16;14.15;;;5.57;;
78346;SDS011;67803;41.330;69.282;2023-04-24T03:56:47;14.60;;;5.10;;
78346;SDS011;67803;41.330;69.282;2023-04-24T03:59:17;16.58;;;5.30;;
78346;SDS011;67803;41.330;69.282;2023-04-24T04:01:48;20.40;;;6.80;;
78346;SDS011;67803;41.330;69.282;2023-04-24T04:04:18;15.73;;;6.00;;
78346;SDS011;67803;41.330;69.282;2023-04-24T04:06:49;12.90;;;5.88;;
78346;SDS011;67803;41.330;69.282;2023-04-24T04:09:19;11.88;;;4.97;;
78346;SDS011;67803;41.330;69.282;2023-04-24T04:11:50;14.35;;;5.20;;
78346;SDS011;67803;41.330;69.282;2023-04-24T04:14:22;19.77;;;7.25;;
78346;SDS011;67803;41.330;69.282;2023-04-24T04:16:53;16.02;;;7.75;;
78346;SDS011;67803;41.330;69.282;2023-04-24T04:19:24;22.55;;;7.70;;
78346;SDS011;67803;41.330;69.282;2023-04-24T04:21:54;22.42;;;8.68;;
78346;SDS011;67803;41.330;69.282;2023-04-24T04:24:26;18.80;;;8.32;;
78346;SDS011;67803;41.330;69.282;2023-04-24T04:26:56;14.45;;;8.18;;
78346;SDS011;67803;41.330;69.282;2023-04-24T04:29:28;17.30;;;8.05;;
78346;SDS011;67803;41.330;69.282;2023-04-24T04:31:58;22.30;;;7.80;;
78346;SDS011;67803;41.330;69.282;2023-04-24T04:34:29;17.83;;;8.73;;
78346;SDS011;67803;41.330;69.282;2023-04-24T04:37:01;18.02;;;8.27;;
78346;SDS011;67803;41.330;69.282;2023-04-24T04:39:32;17.75;;;8.45;;
78346;SDS011;67803;41.330;69.282;2023-04-24T04:42:02;22.45;;;8.93;;
78346;SDS011;67803;41.330;69.282;2023-04-24T04:44:33;19.85;;;9.00;;
78346;SDS011;67803;41.330;69.282;2023-04-24T04:47:05;20.58;;;9.65;;
78346;SDS011;67803;41.330;69.282;2023-04-24T04:49:37;14.48;;;8.38;;
78346;SDS011;67803;41.330;69.282;2023-04-24T04:52:08;17.58;;;9.23;;
78346;SDS011;67803;41.330;69.282;2023-04-24T04:54:39;20.35;;;9.02;;
78346;SDS011;67803;41.330;69.282;2023-04-24T04:57:10;25.08;;;10.27;;
78346;SDS011;67803;41.330;69.282;2023-04-24T04:59:40;21.23;;;10.10;;
78346;SDS011;67803;41.330;69.282;2023-04-24T05:02:11;18.38;;;9.38;;
78346;SDS011;67803;41.330;69.282;2023-04-24T05:04:41;18.88;;;9.40;;
78346;SDS011;67803;41.330;69.282;2023-04-24T05:07:12;17.75;;;9.45;;
78346;SDS011;67803;41.330;69.282;2023-04-24T05:09:43;17.17;;;9.52;;
78346;SDS011;67803;41.330;69.282;2023-04-24T05:12:14;21.42;;;9.75;;
78346;SDS011;67803;41.330;69.282;2023-04-24T05:14:45;23.05;;;9.88;;
78346;SDS011;67803;41.330;69.282;2023-04-24T05:17:15;20.20;;;9.35;;
78346;SDS011;67803;41.330;69.282;2023-04-24T05:19:46;22.90;;;10.05;;
78346;SDS011;67803;41.330;69.282;2023-04-24T05:22:18;22.45;;;10.77;;
78346;SDS011;67803;41.330;69.282;2023-04-24T05:24:50;19.88;;;9.98;;
78346;SDS011;67803;41.330;69.282;2023-04-24T05:27:21;31.63;;;12.05;;
78346;SDS011;67803;41.330;69.282;2023-04-24T05:29:52;25.88;;;8.55;;
78346;SDS011;67803;41.330;69.282;2023-04-24T05:32:22;20.02;;;9.45;;
78346;SDS011;67803;41.330;69.282;2023-04-24T05:34:52;21.63;;;10.15;;
78346;SDS011;67803;41.330;69.282;2023-04-24T05:37:23;23.83;;;10.38;;
78346;SDS011;67803;41.330;69.282;2023-04-24T05:39:53;23.08;;;10.48;;
78346;SDS011;67803;41.330;69.282;2023-04-24T05:42:24;22.50;;;11.07;;
78346;SDS011;67803;41.330;69.282;2023-04-24T05:44:55;22.80;;;11.48;;
78346;SDS011;67803;41.330;69.282;2023-04-24T05:47:25;21.80;;;12.02;;
78346;SDS011;67803;41.330;69.282;2023-04-24T05:49:56;29.67;;;10.95;;
78346;SDS011;67803;41.330;69.282;2023-04-24T05:52:27;23.50;;;12.15;;
78346;SDS011;67803;41.330;69.282;2023-04-24T05:54:57;27.80;;;11.48;;
78346;SDS011;67803;41.330;69.282;2023-04-24T05:57:28;28.60;;;16.42;;
78346;SDS011;67803;41.330;69.282;2023-04-24T05:59:58;25.17;;;10.02;;
78346;SDS011;67803;41.330;69.282;2023-04-24T06:02:28;18.80;;;8.20;;
78346;SDS011;67803;41.330;69.282;2023-04-24T06:05:02;17.10;;;8.43;;
78346;SDS011;67803;41.330;69.282;2023-04-24T06:07:32;29.92;;;12.20;;
78346;SDS011;67803;41.330;69.282;2023-04-24T06:10:03;19.23;;;9.35;;
78346;SDS011;67803;41.330;69.282;2023-04-24T06:12:34;26.35;;;13.55;;
78346;SDS011;67803;41.330;69.282;2023-04-24T06:15:04;17.42;;;7.70;;
78346;SDS011;67803;41.330;69.282;2023-04-24T06:17:35;17.13;;;7.30;;
78346;SDS011;67803;41.330;69.282;2023-04-24T06:20:06;18.13;;;7.68;;
78346;SDS011;67803;41.330;69.282;2023-04-24T06:22:38;13.50;;;6.47;;
78346;SDS011;67803;41.330;69.282;2023-04-24T06:25:10;17.92;;;7.30;;
78346;SDS011;67803;41.330;69.282;2023-04-24T06:27:40;18.17;;;7.80;;
78346;SDS011;67803;41.330;69.282;2023-04-24T06:30:11;16.38;;;7.60;;
78346;SDS011;67803;41.330;69.282;2023-04-24T06:32:41;19.63;;;8.48;;
78346;SDS011;67803;41.330;69.282;2023-04-24T06:35:12;16.42;;;8.27;;
78346;SDS011;67803;41.330;69.282;2023-04-24T06:37:42;18.05;;;8.27;;
78346;SDS011;67803;41.330;69.282;2023-04-24T06:40:13;20.65;;;8.07;;
78346;SDS011;67803;41.330;69.282;2023-04-24T06:42:43;15.02;;;7.28;;
78346;SDS011;67803;41.330;69.282;2023-04-24T06:45:14;16.48;;;9.10;;
78346;SDS011;67803;41.330;69.282;2023-04-24T06:47:44;18.60;;;8.57;;
78346;SDS011;67803;41.330;69.282;2023-04-24T06:50:15;23.02;;;7.93;;
78346;SDS011;67803;41.330;69.282;2023-04-24T06:52:45;29.13;;;9.60;;
78346;SDS011;67803;41.330;69.282;2023-04-24T06:55:16;20.20;;;7.65;;
78346;SDS011;67803;41.330;69.282;2023-04-24T06:57:46;19.05;;;8.43;;
78346;SDS011;67803;41.330;69.282;2023-04-24T07:00:17;15.90;;;7.50;;
78346;SDS011;67803;41.330;69.282;2023-04-24T07:02:47;16.33;;;6.63;;
78346;SDS011;67803;41.330;69.282;2023-04-24T07:05:18;12.75;;;5.82;;
78346;SDS011;67803;41.330;69.282;2023-04-24T07:07:51;15.68;;;5.65;;
78346;SDS011;67803;41.330;69.282;2023-04-24T07:10:22;13.18;;;4.85;;
78346;SDS011;67803;41.330;69.282;2023-04-24T07:12:53;13.02;;;4.65;;
78346;SDS011;67803;41.330;69.282;2023-04-24T07:15:24;14.43;;;4.65;;
78346;SDS011;67803;41.330;69.282;2023-04-24T07:17:54;9.60;;;4.68;;
78346;SDS011;67803;41.330;69.282;2023-04-24T07:20:25;14.27;;;5.00;;
78346;SDS011;67803;41.330;69.282;2023-04-24T07:22:56;9.70;;;4.80;;
78346;SDS011;67803;41.330;69.282;2023-04-24T07:25:26;15.10;;;5.10;;
78346;SDS011;67803;41.330;69.282;2023-04-24T07:27:57;12.82;;;4.47;;
78346;SDS011;67803;41.330;69.282;2023-04-24T07:30:27;14.55;;;4.97;;
78346;SDS011;67803;41.330;69.282;2023-04-24T07:33:02;12.45;;;4.18;;
78346;SDS011;67803;41.330;69.282;2023-04-24T07:35:33;9.05;;;3.92;;
78346;SDS011;67803;41.330;69.282;2023-04-24T07:38:04;8.73;;;3.80;;
78346;SDS011;67803;41.330;69.282;2023-04-24T07:40:35;9.75;;;4.00;;
78346;SDS011;67803;41.330;69.282;2023-04-24T07:43:06;11.82;;;4.22;;
78346;SDS011;67803;41.330;69.282;2023-04-24T07:45:36;10.32;;;3.58;;
78346;SDS011;67803;41.330;69.282;2023-04-24T07:48:07;11.38;;;4.25;;
78346;SDS011;67803;41.330;69.282;2023-04-24T07:50:39;8.15;;;3.33;;
78346;SDS011;67803;41.330;69.282;2023-04-24T07:53:09;11.13;;;4.00;;
78346;SDS011;67803;41.330;69.282;2023-04-24T07:55:40;9.48;;;3.33;;
78346;SDS011;67803;41.330;69.282;2023-04-24T07:58:10;7.63;;;3.15;;
78346;SDS011;67803;41.330;69.282;2023-04-24T08:00:41;10.38;;;3.33;;
78346;SDS011;67803;41.330;69.282;2023-04-24T08:03:11;9.07;;;3.30;;
78346;SDS011;67803;41.330;69.282;2023-04-24T08:05:42;11.77;;;3.50;;
78346;SDS011;67803;41.330;69.282;2023-04-24T08:08:13;8.52;;;3.17;;
78346;SDS011;67803;41.330;69.282;2023-04-24T08:10:43;9.45;;;3.67;;
78346;SDS011;67803;41.330;69.282;2023-04-24T08:13:14;7.82;;;3.10;;
78346;SDS011;67803;41.330;69.282;2023-04-24T08:15:44;10.50;;;3.30;;
78346;SDS011;67803;41.330;69.282;2023-04-24T08:18:15;8.32;;;2.80;;
78346;SDS011;67803;41.330;69.282;2023-04-24T08:20:45;10.63;;;3.70;;
78346;SDS011;67803;41.330;69.282;2023-04-24T08:23:16;9.88;;;3.50;;
78346;SDS011;67803;41.330;69.282;2023-04-24T08:25:46;10.35;;;3.25;;
78346;SDS011;67803;41.330;69.282;2023-04-24T08:28:17;8.75;;;3.05;;
78346;SDS011;67803;41.330;69.282;2023-04-24T08:30:50;10.40;;;4.10;;
78346;SDS011;67803;41.330;69.282;2023-04-24T08:33:24;17.83;;;3.63;;
78346;SDS011;67803;41.330;69.282;2023-04-24T08:35:55;7.03;;;2.85;;
78346;SDS011;67803;41.330;69.282;2023-04-24T08:38:25;9.00;;;2.70;;
78346;SDS011;67803;41.330;69.282;2023-04-24T08:40:57;8.77;;;3.00;;
78346;SDS011;67803;41.330;69.282;2023-04-24T08:43:28;6.60;;;3.08;;
78346;SDS011;67803;41.330;69.282;2023-04-24T08:45:58;12.35;;;3.05;;
78346;SDS011;67803;41.330;69.282;2023-04-24T08:48:29;11.35;;;3.20;;
78346;SDS011;67803;41.330;69.282;2023-04-24T08:51:00;5.03;;;2.30;;
78346;SDS011;67803;41.330;69.282;2023-04-24T08:53:32;7.63;;;2.47;;
78346;SDS011;67803;41.330;69.282;2023-04-24T08:56:03;7.82;;;2.03;;
78346;SDS011;67803;41.330;69.282;2023-04-24T08:58:33;6.50;;;1.92;;
78346;SDS011;67803;41.330;69.282;2023-04-24T09:01:04;9.55;;;2.42;;
78346;SDS011;67803;41.330;69.282;2023-04-24T09:03:35;10.85;;;2.90;;
78346;SDS011;67803;41.330;69.282;2023-04-24T09:06:06;7.65;;;2.35;;
78346;SDS011;67803;41.330;69.282;2023-04-24T09:08:38;6.43;;;2.03;;
78346;SDS011;67803;41.330;69.282;2023-04-24T09:11:09;7.40;;;2.70;;
78346;SDS011;67803;41.330;69.282;2023-04-24T09:13:41;8.57;;;2.92;;
78346;SDS011;67803;41.330;69.282;2023-04-24T09:16:12;7.95;;;2.20;;
78346;SDS011;67803;41.330;69.282;2023-04-24T09:18:44;7.45;;;2.65;;
78346;SDS011;67803;41.330;69.282;2023-04-24T09:21:14;8.00;;;2.35;;
78346;SDS011;67803;41.330;69.282;2023-04-24T09:23:45;8.23;;;2.05;;
78346;SDS011;67803;41.330;69.282;2023-04-24T09:26:15;14.23;;;2.65;;
78346;SDS011;67803;41.330;69.282;2023-04-24T09:28:46;6.20;;;2.03;;
78346;SDS011;67803;41.330;69.282;2023-04-24T09:31:18;4.55;;;1.90;;
78346;SDS011;67803;41.330;69.282;2023-04-24T09:34:22;7.80;;;2.38;;
78346;SDS011;67803;41.330;69.282;2023-04-24T09:36:46;6.88;;;2.22;;
78346;SDS011;67803;41.330;69.282;2023-04-24T09:39:16;6.22;;;2.20;;
78346;SDS011;67803;41.330;69.282;2023-04-24T09:41:54;6.60;;;1.90;;
78346;SDS011;67803;41.330;69.282;2023-04-24T09:44:27;4.25;;;2.35;;
78346;SDS011;67803;41.330;69.282;2023-04-24T09:46:58;7.95;;;2.40;;
78346;SDS011;67803;41.330;69.282;2023-04-24T09:49:30;7.53;;;2.33;;
78346;SDS011;67803;41.330;69.282;2023-04-24T09:52:04;6.78;;;2.28;;
78346;SDS011;67803;41.330;69.282;2023-04-24T09:54:34;7.18;;;2.60;;
78346;SDS011;67803;41.330;69.282;2023-04-24T09:57:09;6.97;;;2.30;;
78346;SDS011;67803;41.330;69.282;2023-04-24T09:59:45;14.82;;;2.30;;
78346;SDS011;67803;41.330;69.282;2023-04-24T10:02:17;10.90;;;2.88;;
78346;SDS011;67803;41.330;69.282;2023-04-24T10:04:57;7.82;;;2.35;;
78346;SDS011;67803;41.330;69.282;2023-04-24T10:07:29;11.32;;;3.47;;
78346;SDS011;67803;41.330;69.282;2023-04-24T10:10:02;8.90;;;2.60;;
78346;SDS011;67803;41.330;69.282;2023-04-24T10:12:33;13.00;;;2.90;;
78346;SDS011;67803;41.330;69.282;2023-04-24T10:15:04;10.70;;;2.80;;
78346;SDS011;67803;41.330;69.282;2023-04-24T10:17:35;11.05;;;2.75;;
78346;SDS011;67803;41.330;69.282;2023-04-24T10:20:07;11.20;;;2.63;;
78346;SDS011;67803;41.330;69.282;2023-04-24T10:22:38;7.57;;;2.58;;
78346;SDS011;67803;41.330;69.282;2023-04-24T10:25:09;13.30;;;3.63;;
78346;SDS011;67803;41.330;69.282;2023-04-24T10:27:40;10.25;;;3.28;;
78346;SDS011;67803;41.330;69.282;2023-04-24T10:30:11;9.02;;;3.05;;
78346;SDS011;67803;41.330;69.282;2023-04-24T10:32:42;12.48;;;3.55;;
78346;SDS011;67803;41.330;69.282;2023-04-24T10:35:13;13.90;;;3.13;;
78346;SDS011;67803;41.330;69.282;2023-04-24T10:37:45;16.20;;;3.85;;
78346;SDS011;67803;41.330;69.282;2023-04-24T10:40:33;8.05;;;2.85;;
78346;SDS011;67803;41.330;69.282;2023-04-24T10:43:07;12.02;;;3.20;;
78346;SDS011;67803;41.330;69.282;2023-04-24T10:45:40;7.13;;;2.50;;
78346;SDS011;67803;41.330;69.282;2023-04-24T10:48:10;7.00;;;2.60;;
78346;SDS011;67803;41.330;69.282;2023-04-24T10:50:44;6.68;;;3.00;;
78346;SDS011;67803;41.330;69.282;2023-04-24T10:53:16;7.80;;;2.50;;
78346;SDS011;67803;41.330;69.282;2023-04-24T10:58:24;9.13;;;3.10;;
78346;SDS011;67803;41.330;69.282;2023-04-24T11:00:59;6.72;;;3.03;;
78346;SDS011;67803;41.330;69.282;2023-04-24T11:03:30;10.65;;;2.88;;
78346;SDS011;67803;41.330;69.282;2023-04-24T11:06:05;12.75;;;3.40;;
78346;SDS011;67803;41.330;69.282;2023-04-24T11:08:39;14.23;;;3.72;;
78346;SDS011;67803;41.330;69.282;2023-04-24T11:11:11;9.45;;;3.45;;
78346;SDS011;67803;41.330;69.282;2023-04-24T11:17:26;16.55;;;4.85;;
78346;SDS011;67803;41.330;69.282;2023-04-24T11:19:23;17.77;;;4.10;;
78346;SDS011;67803;41.330;69.282;2023-04-24T11:21:55;13.88;;;4.82;;
78346;SDS011;67803;41.330;69.282;2023-04-24T11:27:06;16.02;;;4.50;;
78346;SDS011;67803;41.330;69.282;2023-04-24T11:29:38;24.20;;;3.92;;
78346;SDS011;67803;41.330;69.282;2023-04-24T11:37:39;18.85;;;5.35;;
78346;SDS011;67803;41.330;69.282;2023-04-24T11:40:10;38.47;;;4.90;;
78346;SDS011;67803;41.330;69.282;2023-04-24T11:42:42;57.30;;;5.93;;
78346;SDS011;67803;41.330;69.282;2023-04-24T11:45:14;11.93;;;3.95;;
78346;SDS011;67803;41.330;69.282;2023-04-24T11:47:45;13.82;;;4.20;;
78346;SDS011;67803;41.330;69.282;2023-04-24T11:50:16;18.67;;;4.18;;
78346;SDS011;67803;41.330;69.282;2023-04-24T11:52:48;17.80;;;4.20;;
78346;SDS011;67803;41.330;69.282;2023-04-24T11:57:50;14.48;;;5.07;;
78346;SDS011;67803;41.330;69.282;2023-04-24T12:00:25;19.02;;;6.50;;
78346;SDS011;67803;41.330;69.282;2023-04-24T12:03:09;17.50;;;5.28;;
78346;SDS011;67803;41.330;69.282;2023-04-24T12:05:40;23.63;;;4.57;;
78346;SDS011;67803;41.330;69.282;2023-04-24T12:08:10;14.05;;;3.60;;
78346;SDS011;67803;41.330;69.282;2023-04-24T12:10:41;14.88;;;4.18;;
78346;SDS011;67803;41.330;69.282;2023-04-24T12:13:11;16.98;;;3.50;;
78346;SDS011;67803;41.330;69.282;2023-04-24T12:15:43;14.05;;;4.07;;
78346;SDS011;67803;41.330;69.282;2023-04-24T12:18:13;13.45;;;3.10;;
78346;SDS011;67803;41.330;69.282;2023-04-24T12:20:46;15.98;;;2.80;;
78346;SDS011;67803;41.330;69.282;2023-04-24T12:23:32;8.23;;;3.88;;
78346;SDS011;67803;41.330;69.282;2023-04-24T12:26:03;9.85;;;3.33;;
78346;SDS011;67803;41.330;69.282;2023-04-24T12:28:35;16.67;;;5.50;;
78346;SDS011;67803;41.330;69.282;2023-04-24T12:31:06;10.20;;;2.58;;
78346;SDS011;67803;41.330;69.282;2023-04-24T12:33:37;7.57;;;2.58;;
78346;SDS011;67803;41.330;69.282;2023-04-24T12:36:11;12.90;;;2.58;;
78346;SDS011;67803;41.330;69.282;2023-04-24T12:38:45;23.33;;;12.23;;
78346;SDS011;67803;41.330;69.282;2023-04-24T12:41:16;8.35;;;2.47;;
78346;SDS011;67803;41.330;69.282;2023-04-24T12:43:52;13.20;;;3.65;;
78346;SDS011;67803;41.330;69.282;2023-04-24T12:46:23;13.32;;;2.88;;
78346;SDS011;67803;41.330;69.282;2023-04-24T12:51:49;16.98;;;3.03;;
78346;SDS011;67803;41.330;69.282;2023-04-24T12:54:19;18.17;;;3.08;;
78346;SDS011;67803;41.330;69.282;2023-04-24T12:56:50;21.17;;;3.88;;
78346;SDS011;67803;41.330;69.282;2023-04-24T12:59:20;15.57;;;2.88;;
78346;SDS011;67803;41.330;69.282;2023-04-24T13:01:51;9.32;;;2.42;;
78346;SDS011;67803;41.330;69.282;2023-04-24T13:04:21;12.10;;;3.30;;
78346;SDS011;67803;41.330;69.282;2023-04-24T13:06:52;14.73;;;3.17;;
78346;SDS011;67803;41.330;69.282;2023-04-24T13:09:22;19.23;;;2.92;;
78346;SDS011;67803;41.330;69.282;2023-04-24T13:11:54;7.35;;;2.60;;
78346;SDS011;67803;41.330;69.282;2023-04-24T13:14:24;9.45;;;3.22;;
78346;SDS011;67803;41.330;69.282;2023-04-24T13:16:55;13.82;;;3.13;;
78346;SDS011;67803;41.330;69.282;2023-04-24T13:19:25;13.13;;;2.65;;
78346;SDS011;67803;41.330;69.282;2023-04-24T13:21:56;12.80;;;2.72;;
78346;SDS011;67803;41.330;69.282;2023-04-24T13:24:27;10.75;;;3.05;;
78346;SDS011;67803;41.330;69.282;2023-04-24T13:26:58;17.73;;;2.95;;
78346;SDS011;67803;41.330;69.282;2023-04-24T13:29:28;44.63;;;7.75;;
78346;SDS011;67803;41.330;69.282;2023-04-24T13:31:59;11.88;;;2.47;;
78346;SDS011;67803;41.330;69.282;2023-04-24T13:34:29;27.23;;;3.80;;
78346;SDS011;67803;41.330;69.282;2023-04-24T13:37:00;14.45;;;3.78;;
78346;SDS011;67803;41.330;69.282;2023-04-24T13:39:31;21.83;;;7.25;;
78346;SDS011;67803;41.330;69.282;2023-04-24T13:42:02;16.60;;;3.22;;
78346;SDS011;67803;41.330;69.282;2023-04-24T13:44:32;10.98;;;3.53;;
78346;SDS011;67803;41.330;69.282;2023-04-24T13:47:03;12.38;;;2.90;;
78346;SDS011;67803;41.330;69.282;2023-04-24T13:49:33;8.98;;;3.13;;
78346;SDS011;67803;41.330;69.282;2023-04-24T13:52:04;16.92;;;5.60;;
78346;SDS011;67803;41.330;69.282;2023-04-24T13:54:35;16.85;;;2.80;;
78346;SDS011;67803;41.330;69.282;2023-04-24T13:57:05;12.27;;;2.53;;
78346;SDS011;67803;41.330;69.282;2023-04-24T13:59:35;10.60;;;2.53;;
78346;SDS011;67803;41.330;69.282;2023-04-24T14:02:07;17.08;;;2.90;;
78346;SDS011;67803;41.330;69.282;2023-04-24T14:04:37;18.80;;;2.85;;
78346;SDS011;67803;41.330;69.282;2023-04-24T14:07:08;11.77;;;2.83;;
78346;SDS011;67803;41.330;69.282;2023-04-24T14:09:38;11.32;;;2.97;;
78346;SDS011;67803;41.330;69.282;2023-04-24T14:12:09;8.75;;;2.35;;
78346;SDS011;67803;41.330;69.282;2023-04-24T14:14:39;11.80;;;3.28;;
78346;SDS011;67803;41.330;69.282;2023-04-24T14:17:10;15.27;;;2.88;;
78346;SDS011;67803;41.330;69.282;2023-04-24T14:19:40;13.45;;;2.85;;
78346;SDS011;67803;41.330;69.282;2023-04-24T14:22:11;8.73;;;2.75;;
78346;SDS011;67803;41.330;69.282;2023-04-24T14:24:41;35.90;;;3.47;;
78346;SDS011;67803;41.330;69.282;2023-04-24T14:27:12;11.32;;;2.85;;
78346;SDS011;67803;41.330;69.282;2023-04-24T14:29:42;11.80;;;2.50;;
78346;SDS011;67803;41.330;69.282;2023-04-24T14:32:15;16.70;;;2.78;;
78346;SDS011;67803;41.330;69.282;2023-04-24T14:34:45;9.50;;;2.85;;
78346;SDS011;67803;41.330;69.282;2023-04-24T14:37:16;13.18;;;2.97;;
78346;SDS011;67803;41.330;69.282;2023-04-24T14:39:46;14.93;;;2.90;;
78346;SDS011;67803;41.330;69.282;2023-04-24T14:42:17;9.35;;;2.67;;
78346;SDS011;67803;41.330;69.282;2023-04-24T14:44:47;10.25;;;3.42;;
78346;SDS011;67803;41.330;69.282;2023-04-24T14:47:18;15.05;;;2.67;;
78346;SDS011;67803;41.330;69.282;2023-04-24T14:49:51;11.13;;;2.35;;
78346;SDS011;67803;41.330;69.282;2023-04-24T14:52:21;11.93;;;3.20;;
78346;SDS011;67803;41.330;69.282;2023-04-24T14:54:52;9.50;;;2.83;;
78346;SDS011;67803;41.330;69.282;2023-04-24T14:57:22;12.23;;;2.88;;
78346;SDS011;67803;41.330;69.282;2023-04-24T14:59:53;13.55;;;3.00;;
78346;SDS011;67803;41.330;69.282;2023-04-24T15:02:23;14.73;;;2.80;;
78346;SDS011;67803;41.330;69.282;2023-04-24T15:04:54;16.25;;;3.17;;